Flight Track Log - Related Links

Times and Time Zones

All times are in EDT time to prevent confusion due to time zone crossing. See the CCA1682 flight status page for this flight to view local times or setup timezone preferences in your user account.

Time Position Orientation Groundspeed Altitude Reporting Facility
EDT Latitude Longitude Course Direction KTS MPH feet Rate Location/Type
Sun 09:29:00 AM 44.3963 129.0908 250° West  Level Estimated
Sun 09:30:00 AM 44.3641 128.9715 249° West  Level Estimated
Sun 09:31:00 AM 44.3317 128.8524 249° West  Level Estimated
Sun 09:32:00 AM 44.2992 128.7335 249° West  Level Estimated
Sun 09:33:00 AM 44.2666 128.6147 249° West  Level Estimated
Sun 09:34:00 AM 44.2339 128.4960 249° West  Level Estimated
Sun 09:35:00 AM 44.2010 128.3774 249° West  Level Estimated
Sun 09:36:00 AM 44.1680 128.2590 249° West  Level Estimated
Sun 09:37:00 AM 44.1349 128.1407 249° West  Level Estimated
Sun 09:38:00 AM 44.1017 128.0225 249° West  Level Estimated
Sun 09:39:00 AM 44.0684 127.9044 249° West  Level Estimated
Sun 09:40:00 AM 44.0349 127.7866 248° West  Level Estimated
Sun 09:41:00 AM 44.0013 127.6688 248° West  Level Estimated
Sun 09:42:00 AM 43.9676 127.5511 248° West  Level Estimated
Sun 09:43:00 AM 43.9337 127.4336 248° West  Level Estimated
Sun 09:44:00 AM 43.8998 127.3163 248° West  Level Estimated
Sun 09:45:00 AM 43.8657 127.1991 248° West  Level Estimated
Sun 09:46:00 AM 43.8315 127.0819 248° West  Level Estimated
Sun 09:47:00 AM 43.7972 126.9650 248° West  Level Estimated
Sun 09:48:00 AM 43.7628 126.8482 248° West  Level Estimated
Sun 09:49:00 AM 43.7282 126.7315 248° West  Level Estimated
Sun 09:50:00 AM 43.6936 126.6149 248° West  Level Estimated
Sun 09:51:00 AM 43.6588 126.4985 248° West  Level Estimated
Sun 09:52:00 AM 43.6239 126.3822 248° West  Level Estimated
Sun 09:53:00 AM 43.5888 126.2660 247° West  Level Estimated
Sun 09:54:00 AM 43.5537 126.1500 247° West  Level Estimated
Sun 09:55:00 AM 43.5184 126.0341 247° West  Level Estimated
Sun 09:56:00 AM 43.4831 125.9184 247° West  Level Estimated
Sun 09:57:00 AM 43.4476 125.8028 247° West  Level Estimated
Sun 09:58:00 AM 43.4120 125.6873 247° West  Level Estimated
Sun 09:59:00 AM 43.3762 125.5719 247° West  Level Estimated
Sun 10:00:00 AM 43.3404 125.4567 247° West  Level Estimated
Sun 10:01:00 AM 43.3045 125.3417 247° West  Level Estimated
Sun 10:02:00 AM 43.2684 125.2267 247° West  Level Estimated
Sun 10:03:00 AM 43.2322 125.1119 247° West  Level Estimated
Sun 10:04:00 AM 43.1959 124.9973 247° West  Level Estimated
Sun 10:05:00 AM 43.1595 124.8828 246° West  Level Estimated
Sun 10:06:00 AM 43.1230 124.7684 246° West  Level Estimated
Sun 10:07:00 AM 43.0863 124.6541 246° West  Level Estimated
Sun 10:08:00 AM 43.0495 124.5400 246° West  Level Estimated
Sun 10:09:00 AM 43.0127 124.4260 246° West  Level Estimated
Sun 10:10:00 AM 42.9757 124.3122 246° West  Level Estimated
Sun 10:11:00 AM 42.9386 124.1985 246° West  Level Estimated
Sun 10:12:00 AM 42.9014 124.0849 246° West  Level Estimated
Sun 10:13:00 AM 42.8641 123.9715 246° West  Level Estimated
Sun 10:14:00 AM 42.8266 123.8582 246° West  Level Estimated
Sun 10:15:00 AM 42.7891 123.7450 246° West  Level Estimated
Sun 10:16:00 AM 42.7515 123.6320 246° West  Level Estimated
Sun 10:17:00 AM 42.7137 123.5191 246° West  Level Estimated
Sun 10:18:00 AM 42.6758 123.4064 245° Southwest  Level Estimated
Sun 10:19:00 AM 42.6378 123.2938 245° Southwest  Level Estimated
Sun 10:20:00 AM 42.5997 123.1813 245° Southwest  Level Estimated
Sun 10:21:00 AM 42.5615 123.0690 245° Southwest  Level Estimated
Sun 10:22:00 AM 42.5232 122.9568 245° Southwest  Level Estimated
Sun 10:23:00 AM 42.4848 122.8448 245° Southwest  Level Estimated
Sun 10:24:00 AM 42.4463 122.7328 245° Southwest  Level Estimated
Sun 10:25:00 AM 42.4076 122.6211 245° Southwest  Level Estimated
Sun 10:26:00 AM 42.3689 122.5094 245° Southwest  Level Estimated
Sun 10:27:00 AM 42.3300 122.3979 245° Southwest  Level Estimated
Sun 10:28:00 AM 42.2910 122.2866 245° Southwest  Level Estimated
Sun 10:29:00 AM 42.2520 122.1753 245° Southwest  Level Estimated
Sun 10:30:00 AM 42.2128 122.0642 245° Southwest  Level Estimated
Sun 10:31:00 AM 42.1735 121.9533 244° Southwest  Level Estimated
Sun 10:32:00 AM 42.1341 121.8425 244° Southwest  Level Estimated
Sun 10:33:00 AM 42.0946 121.7318 244° Southwest  Level Estimated
Sun 10:34:00 AM 42.0550 121.6213 244° Southwest  Level Estimated
Sun 10:35:00 AM 42.0153 121.5109 244° Southwest  Level Estimated
Sun 10:36:00 AM 41.9754 121.4006 244° Southwest  Level Estimated
Sun 10:37:00 AM 41.9355 121.2905 244° Southwest  Level Estimated
Sun 10:38:00 AM 41.8955 121.1805 244° Southwest  Level Estimated
Sun 10:39:00 AM 41.8554 121.0707 244° Southwest  Level Estimated
Sun 10:40:00 AM 41.8151 120.9610 244° Southwest  Level Estimated
Sun 10:41:00 AM 41.7748 120.8514 244° Southwest  Level Estimated
Sun 10:42:00 AM 41.7343 120.7420 244° Southwest  Level Estimated
Sun 10:43:00 AM 41.6938 120.6327 244° Southwest  Level Estimated
Sun 10:44:00 AM 41.6531 120.5235 244° Southwest  Level Estimated
Sun 10:45:00 AM 41.6124 120.4145 243° Southwest  Level Estimated
Sun 10:46:00 AM 41.5715 120.3056 243° Southwest  Level Estimated
Sun 10:47:00 AM 41.5305 120.1969 243° Southwest  Level Estimated
Sun 10:48:00 AM 41.4895 120.0882 243° Southwest  Level Estimated
Sun 10:49:00 AM 41.4483 119.9798 243° Southwest  Level Estimated
Sun 10:50:00 AM 41.4070 119.8715 243° Southwest  Level Estimated
Sun 10:51:00 AM 41.3657 119.7633 243° Southwest  Level Estimated
Sun 10:52:00 AM 41.3242 119.6552 243° Southwest  Level Estimated
Sun 10:53:00 AM 41.2826 119.5473 243° Southwest  Level Estimated
Sun 10:54:00 AM 41.2409 119.4395 243° Southwest  Level Estimated
Sun 10:55:00 AM 41.1992 119.3319 243° Southwest  Level Estimated
Sun 10:56:00 AM 41.1573 119.2243 243° Southwest  Level Estimated
Sun 10:57:00 AM 41.1153 119.1170 243° Southwest  Level Estimated
Sun 10:58:00 AM 41.0732 119.0098 243° Southwest  Level Estimated
Sun 10:59:00 AM 41.0311 118.9027 242° Southwest  Level Estimated
Sun 11:00:00 AM 40.9888 118.7957 242° Southwest  Level Estimated
Sun 11:01:00 AM 40.9464 118.6889 242° Southwest  Level Estimated
Sun 11:02:00 AM 40.9040 118.5822 242° Southwest  Level Estimated
Sun 11:03:00 AM 40.8614 118.4757 242° Southwest  Level Estimated
Sun 11:04:00 AM 40.8187 118.3693 242° Southwest  Level Estimated
Sun 11:05:00 AM 40.7760 118.2630 242° Southwest  Level Estimated
Sun 11:06:00 AM 40.7331 118.1569 242° Southwest  Level Estimated
Sun 11:07:00 AM 40.6901 118.0509 242° Southwest  Level Estimated
Sun 11:08:00 AM 40.6471 117.9450 242° Southwest  Level Estimated
Sun 11:09:00 AM 40.6039 117.8393 242° Southwest  Level Estimated
Sun 11:10:00 AM 40.5607 117.7337 242° Southwest  Level Estimated
Sun 11:11:00 AM 40.5173 117.6282 242° Southwest  Level Estimated
Sun 11:12:00 AM 40.4739 117.5229 242° Southwest  Level Estimated
Sun 11:13:00 AM 40.4304 117.4177 241° Southwest  Level Estimated
Sun 11:14:00 AM 40.3867 117.3127 241° Southwest  Level Estimated
Sun 11:15:00 AM 40.3430 117.2078 241° Southwest  Level Estimated
Sun 11:16:00 AM 40.2992 117.1030 241° Southwest  Level Estimated
Sun 11:17:00 AM 40.2553 116.9984 241° Southwest  Level Estimated
Sun 11:18:00 AM 40.2113 116.8939 241° Southwest  Level Estimated
Sun 11:19:00 AM 40.1672 116.7896 241° Southwest  Level Estimated
Sun 11:20:00 AM 40.1230 116.6853 241° Southwest  Level Estimated
Sun 11:21:00 AM 40.0801 116.5846 241° Southwest  Level Estimated
Sun 11:22:00 AM 40.0801 116.5846 North  Level Estimated
Sun 11:23:00 AM 40.0801 116.5846 North  Level Estimated
Sun 11:24:00 AM 40.0801 116.5846 North  Level Estimated
Sun 11:25:00 AM 40.0801 116.5846 North  Level Estimated
Sun 11:26:00 AM 40.0801 116.5846 North  Level Estimated
Sun 11:27:00 AM 40.0801 116.5846 North  Level Estimated
Sun 11:28:00 AM 40.0801 116.5846 North  Level Estimated
Sun 11:29:00 AM 40.0801 116.5846 North  Level Estimated

Login

Don't have an account? Register now (free) for customized features, flight alerts, and more!